sensor_id;sensor_type;location;lat;lon;timestamp;P1;durP1;ratioP1;P2;durP2;ratioP2
36195;SDS011;22237;51.974;4.616;2024-03-25T00:00:10;2.33;;;0.80;;
36195;SDS011;22237;51.974;4.616;2024-03-25T00:02:37;0.50;;;0.50;;
36195;SDS011;22237;51.974;4.616;2024-03-25T00:05:02;0.50;;;0.50;;
36195;SDS011;22237;51.974;4.616;2024-03-25T00:07:27;3.40;;;1.05;;
36195;SDS011;22237;51.974;4.616;2024-03-25T00:09:52;1.55;;;0.98;;
36195;SDS011;22237;51.974;4.616;2024-03-25T00:12:20;4.57;;;0.90;;
36195;SDS011;22237;51.974;4.616;2024-03-25T00:14:45;1.05;;;0.95;;
36195;SDS011;22237;51.974;4.616;2024-03-25T00:17:10;0.47;;;0.47;;
36195;SDS011;22237;51.974;4.616;2024-03-25T00:19:36;1.55;;;0.82;;
36195;SDS011;22237;51.974;4.616;2024-03-25T00:22:01;0.32;;;0.32;;
36195;SDS011;22237;51.974;4.616;2024-03-25T00:24:26;0.60;;;0.55;;
36195;SDS011;22237;51.974;4.616;2024-03-25T00:26:52;6.82;;;1.48;;
36195;SDS011;22237;51.974;4.616;2024-03-25T00:29:17;0.20;;;0.20;;
36195;SDS011;22237;51.974;4.616;2024-03-25T00:31:42;0.40;;;0.40;;
36195;SDS011;22237;51.974;4.616;2024-03-25T00:34:07;0.30;;;0.30;;
36195;SDS011;22237;51.974;4.616;2024-03-25T00:36:32;1.45;;;0.60;;
36195;SDS011;22237;51.974;4.616;2024-03-25T00:38:58;0.50;;;0.50;;
36195;SDS011;22237;51.974;4.616;2024-03-25T00:41:24;4.13;;;2.60;;
36195;SDS011;22237;51.974;4.616;2024-03-25T00:43:49;0.32;;;0.32;;
36195;SDS011;22237;51.974;4.616;2024-03-25T00:46:14;0.50;;;0.50;;
36195;SDS011;22237;51.974;4.616;2024-03-25T00:48:39;4.10;;;0.43;;
36195;SDS011;22237;51.974;4.616;2024-03-25T00:51:06;0.30;;;0.30;;
36195;SDS011;22237;51.974;4.616;2024-03-25T00:53:32;2.90;;;1.55;;
36195;SDS011;22237;51.974;4.616;2024-03-25T00:55:57;0.35;;;0.35;;
36195;SDS011;22237;51.974;4.616;2024-03-25T00:58:22;0.28;;;0.28;;
36195;SDS011;22237;51.974;4.616;2024-03-25T01:00:47;0.45;;;0.45;;
36195;SDS011;22237;51.974;4.616;2024-03-25T01:03:12;0.73;;;0.73;;
36195;SDS011;22237;51.974;4.616;2024-03-25T01:05:38;0.30;;;0.30;;
36195;SDS011;22237;51.974;4.616;2024-03-25T01:08:03;1.00;;;1.00;;
36195;SDS011;22237;51.974;4.616;2024-03-25T01:10:28;0.60;;;0.43;;
36195;SDS011;22237;51.974;4.616;2024-03-25T01:12:54;0.30;;;0.30;;
36195;SDS011;22237;51.974;4.616;2024-03-25T01:15:19;1.60;;;0.77;;
36195;SDS011;22237;51.974;4.616;2024-03-25T01:17:44;2.95;;;1.35;;
36195;SDS011;22237;51.974;4.616;2024-03-25T01:20:09;1.95;;;1.27;;
36195;SDS011;22237;51.974;4.616;2024-03-25T01:22:35;5.93;;;1.00;;
36195;SDS011;22237;51.974;4.616;2024-03-25T01:25:00;1.05;;;0.95;;
36195;SDS011;22237;51.974;4.616;2024-03-25T01:27:25;0.90;;;0.90;;
36195;SDS011;22237;51.974;4.616;2024-03-25T01:29:51;0.88;;;0.43;;
36195;SDS011;22237;51.974;4.616;2024-03-25T01:32:16;2.33;;;1.55;;
36195;SDS011;22237;51.974;4.616;2024-03-25T01:34:41;0.55;;;0.55;;
36195;SDS011;22237;51.974;4.616;2024-03-25T01:37:06;2.33;;;0.55;;
36195;SDS011;22237;51.974;4.616;2024-03-25T01:39:32;2.42;;;0.85;;
36195;SDS011;22237;51.974;4.616;2024-03-25T01:41:57;1.73;;;1.08;;
36195;SDS011;22237;51.974;4.616;2024-03-25T01:44:22;6.73;;;1.27;;
36195;SDS011;22237;51.974;4.616;2024-03-25T01:46:48;0.98;;;0.47;;
36195;SDS011;22237;51.974;4.616;2024-03-25T01:49:13;0.40;;;0.40;;
36195;SDS011;22237;51.974;4.616;2024-03-25T01:51:39;8.02;;;0.90;;
36195;SDS011;22237;51.974;4.616;2024-03-25T01:54:05;21.23;;;2.20;;
36195;SDS011;22237;51.974;4.616;2024-03-25T01:56:31;10.18;;;3.78;;
36195;SDS011;22237;51.974;4.616;2024-03-25T01:58:58;0.38;;;0.38;;
36195;SDS011;22237;51.974;4.616;2024-03-25T02:01:24;0.40;;;0.40;;
36195;SDS011;22237;51.974;4.616;2024-03-25T02:03:49;0.73;;;0.73;;
36195;SDS011;22237;51.974;4.616;2024-03-25T02:06:18;9.80;;;0.70;;
36195;SDS011;22237;51.974;4.616;2024-03-25T02:08:44;14.00;;;1.48;;
36195;SDS011;22237;51.974;4.616;2024-03-25T02:11:09;0.30;;;0.30;;
36195;SDS011;22237;51.974;4.616;2024-03-25T02:13:35;0.98;;;0.55;;
36195;SDS011;22237;51.974;4.616;2024-03-25T02:16:01;0.45;;;0.45;;
36195;SDS011;22237;51.974;4.616;2024-03-25T02:18:26;1.33;;;1.25;;
36195;SDS011;22237;51.974;4.616;2024-03-25T02:20:51;0.25;;;0.25;;
36195;SDS011;22237;51.974;4.616;2024-03-25T02:23:17;0.95;;;0.95;;
36195;SDS011;22237;51.974;4.616;2024-03-25T02:25:49;19.67;;;1.00;;
36195;SDS011;22237;51.974;4.616;2024-03-25T02:28:14;3.38;;;0.55;;
36195;SDS011;22237;51.974;4.616;2024-03-25T02:30:39;0.47;;;0.47;;
36195;SDS011;22237;51.974;4.616;2024-03-25T02:33:05;0.50;;;0.50;;
36195;SDS011;22237;51.974;4.616;2024-03-25T02:35:30;0.20;;;0.20;;
36195;SDS011;22237;51.974;4.616;2024-03-25T02:37:56;0.30;;;0.30;;
36195;SDS011;22237;51.974;4.616;2024-03-25T02:40:21;0.75;;;0.60;;
36195;SDS011;22237;51.974;4.616;2024-03-25T02:42:47;0.60;;;0.57;;
36195;SDS011;22237;51.974;4.616;2024-03-25T02:45:12;0.40;;;0.40;;
36195;SDS011;22237;51.974;4.616;2024-03-25T02:47:37;4.50;;;0.68;;
36195;SDS011;22237;51.974;4.616;2024-03-25T02:50:03;1.67;;;0.65;;
36195;SDS011;22237;51.974;4.616;2024-03-25T02:52:28;1.75;;;0.88;;
36195;SDS011;22237;51.974;4.616;2024-03-25T02:54:53;0.37;;;0.37;;
36195;SDS011;22237;51.974;4.616;2024-03-25T02:57:21;0.65;;;0.43;;
36195;SDS011;22237;51.974;4.616;2024-03-25T02:59:46;0.75;;;0.75;;
36195;SDS011;22237;51.974;4.616;2024-03-25T03:02:11;1.75;;;1.30;;
36195;SDS011;22237;51.974;4.616;2024-03-25T03:04:37;1.05;;;1.05;;
36195;SDS011;22237;51.974;4.616;2024-03-25T03:07:02;3.97;;;1.10;;
36195;SDS011;22237;51.974;4.616;2024-03-25T03:09:27;1.02;;;0.63;;
36195;SDS011;22237;51.974;4.616;2024-03-25T03:11:52;0.90;;;0.90;;
36195;SDS011;22237;51.974;4.616;2024-03-25T03:14:18;12.37;;;0.60;;
36195;SDS011;22237;51.974;4.616;2024-03-25T03:16:43;0.30;;;0.30;;
36195;SDS011;22237;51.974;4.616;2024-03-25T03:19:08;1.92;;;0.80;;
36195;SDS011;22237;51.974;4.616;2024-03-25T03:21:33;1.17;;;1.17;;
36195;SDS011;22237;51.974;4.616;2024-03-25T03:23:58;1.55;;;0.73;;
36195;SDS011;22237;51.974;4.616;2024-03-25T03:26:24;0.30;;;0.30;;
36195;SDS011;22237;51.974;4.616;2024-03-25T03:28:58;0.40;;;0.40;;
36195;SDS011;22237;51.974;4.616;2024-03-25T03:31:23;0.30;;;0.30;;
36195;SDS011;22237;51.974;4.616;2024-03-25T03:33:49;0.90;;;0.80;;
36195;SDS011;22237;51.974;4.616;2024-03-25T03:36:17;0.63;;;0.63;;
36195;SDS011;22237;51.974;4.616;2024-03-25T03:38:43;6.10;;;0.80;;
36195;SDS011;22237;51.974;4.616;2024-03-25T03:41:08;1.38;;;1.08;;
36195;SDS011;22237;51.974;4.616;2024-03-25T03:43:33;0.70;;;0.70;;
36195;SDS011;22237;51.974;4.616;2024-03-25T03:45:59;1.27;;;1.17;;
36195;SDS011;22237;51.974;4.616;2024-03-25T03:48:24;5.15;;;0.98;;
36195;SDS011;22237;51.974;4.616;2024-03-25T03:50:49;1.00;;;1.00;;
36195;SDS011;22237;51.974;4.616;2024-03-25T03:53:14;0.40;;;0.40;;
36195;SDS011;22237;51.974;4.616;2024-03-25T03:55:39;1.50;;;1.45;;
36195;SDS011;22237;51.974;4.616;2024-03-25T03:58:05;8.75;;;1.15;;
36195;SDS011;22237;51.974;4.616;2024-03-25T04:00:33;3.47;;;1.45;;
36195;SDS011;22237;51.974;4.616;2024-03-25T04:02:58;3.40;;;1.17;;
36195;SDS011;22237;51.974;4.616;2024-03-25T04:05:23;0.70;;;0.70;;
36195;SDS011;22237;51.974;4.616;2024-03-25T04:07:49;3.80;;;0.98;;
36195;SDS011;22237;51.974;4.616;2024-03-25T04:10:14;0.80;;;0.80;;
36195;SDS011;22237;51.974;4.616;2024-03-25T04:12:40;1.65;;;1.30;;
36195;SDS011;22237;51.974;4.616;2024-03-25T04:15:05;0.50;;;0.50;;
36195;SDS011;22237;51.974;4.616;2024-03-25T04:17:30;0.75;;;0.75;;
36195;SDS011;22237;51.974;4.616;2024-03-25T04:19:58;0.52;;;0.52;;
36195;SDS011;22237;51.974;4.616;2024-03-25T04:22:23;0.60;;;0.60;;
36195;SDS011;22237;51.974;4.616;2024-03-25T04:24:48;0.60;;;0.60;;
36195;SDS011;22237;51.974;4.616;2024-03-25T04:27:13;2.45;;;0.82;;
36195;SDS011;22237;51.974;4.616;2024-03-25T04:29:40;2.20;;;0.85;;
36195;SDS011;22237;51.974;4.616;2024-03-25T04:32:05;0.45;;;0.45;;
36195;SDS011;22237;51.974;4.616;2024-03-25T04:34:31;0.65;;;0.65;;
36195;SDS011;22237;51.974;4.616;2024-03-25T04:36:56;0.80;;;0.80;;
36195;SDS011;22237;51.974;4.616;2024-03-25T04:39:21;0.43;;;0.43;;
36195;SDS011;22237;51.974;4.616;2024-03-25T04:41:47;1.95;;;1.85;;
36195;SDS011;22237;51.974;4.616;2024-03-25T04:44:12;8.50;;;0.77;;
36195;SDS011;22237;51.974;4.616;2024-03-25T04:46:37;0.63;;;0.63;;
36195;SDS011;22237;51.974;4.616;2024-03-25T04:49:03;0.70;;;0.70;;
36195;SDS011;22237;51.974;4.616;2024-03-25T04:51:28;4.43;;;0.95;;
36195;SDS011;22237;51.974;4.616;2024-03-25T04:53:53;6.50;;;2.47;;
36195;SDS011;22237;51.974;4.616;2024-03-25T04:56:18;0.38;;;0.38;;
36195;SDS011;22237;51.974;4.616;2024-03-25T04:58:44;0.43;;;0.40;;
36195;SDS011;22237;51.974;4.616;2024-03-25T05:01:09;0.40;;;0.40;;
36195;SDS011;22237;51.974;4.616;2024-03-25T05:03:34;0.70;;;0.70;;
36195;SDS011;22237;51.974;4.616;2024-03-25T05:05:59;0.88;;;0.85;;
36195;SDS011;22237;51.974;4.616;2024-03-25T05:08:24;0.70;;;0.70;;
36195;SDS011;22237;51.974;4.616;2024-03-25T05:10:50;0.40;;;0.40;;
36195;SDS011;22237;51.974;4.616;2024-03-25T05:13:15;2.30;;;2.10;;
36195;SDS011;22237;51.974;4.616;2024-03-25T05:15:40;0.40;;;0.40;;
36195;SDS011;22237;51.974;4.616;2024-03-25T05:18:05;0.40;;;0.40;;
36195;SDS011;22237;51.974;4.616;2024-03-25T05:20:30;0.88;;;0.88;;
36195;SDS011;22237;51.974;4.616;2024-03-25T05:22:56;0.73;;;0.73;;
36195;SDS011;22237;51.974;4.616;2024-03-25T05:25:21;14.90;;;0.90;;
36195;SDS011;22237;51.974;4.616;2024-03-25T05:27:53;0.50;;;0.50;;
36195;SDS011;22237;51.974;4.616;2024-03-25T05:30:18;1.65;;;0.75;;
36195;SDS011;22237;51.974;4.616;2024-03-25T05:32:43;0.65;;;0.65;;
36195;SDS011;22237;51.974;4.616;2024-03-25T05:35:09;0.52;;;0.52;;
36195;SDS011;22237;51.974;4.616;2024-03-25T05:37:35;0.93;;;0.93;;
36195;SDS011;22237;51.974;4.616;2024-03-25T05:40:01;0.40;;;0.40;;
36195;SDS011;22237;51.974;4.616;2024-03-25T05:42:26;1.73;;;0.93;;
36195;SDS011;22237;51.974;4.616;2024-03-25T05:44:51;0.55;;;0.55;;
36195;SDS011;22237;51.974;4.616;2024-03-25T05:47:16;3.58;;;1.10;;
36195;SDS011;22237;51.974;4.616;2024-03-25T05:49:42;0.40;;;0.40;;
36195;SDS011;22237;51.974;4.616;2024-03-25T05:52:07;0.52;;;0.52;;
36195;SDS011;22237;51.974;4.616;2024-03-25T05:54:32;0.82;;;0.82;;
36195;SDS011;22237;51.974;4.616;2024-03-25T05:56:57;0.50;;;0.50;;
36195;SDS011;22237;51.974;4.616;2024-03-25T05:59:23;0.50;;;0.50;;
36195;SDS011;22237;51.974;4.616;2024-03-25T06:01:48;3.45;;;0.52;;
36195;SDS011;22237;51.974;4.616;2024-03-25T06:04:13;1.48;;;1.38;;
36195;SDS011;22237;51.974;4.616;2024-03-25T06:06:39;0.40;;;0.40;;
36195;SDS011;22237;51.974;4.616;2024-03-25T06:09:04;2.88;;;1.75;;
36195;SDS011;22237;51.974;4.616;2024-03-25T06:11:30;3.88;;;0.98;;
36195;SDS011;22237;51.974;4.616;2024-03-25T06:13:56;2.40;;;0.68;;
36195;SDS011;22237;51.974;4.616;2024-03-25T06:16:21;0.40;;;0.40;;
36195;SDS011;22237;51.974;4.616;2024-03-25T06:18:46;0.40;;;0.40;;
36195;SDS011;22237;51.974;4.616;2024-03-25T06:21:11;2.67;;;0.70;;
36195;SDS011;22237;51.974;4.616;2024-03-25T06:23:40;0.50;;;0.50;;
36195;SDS011;22237;51.974;4.616;2024-03-25T06:26:05;0.70;;;0.70;;
36195;SDS011;22237;51.974;4.616;2024-03-25T06:28:31;0.98;;;0.98;;
36195;SDS011;22237;51.974;4.616;2024-03-25T06:30:56;0.77;;;0.77;;
36195;SDS011;22237;51.974;4.616;2024-03-25T06:33:40;1.58;;;1.48;;
36195;SDS011;22237;51.974;4.616;2024-03-25T06:36:24;0.55;;;0.55;;
36195;SDS011;22237;51.974;4.616;2024-03-25T06:38:49;3.10;;;2.00;;
36195;SDS011;22237;51.974;4.616;2024-03-25T06:41:14;6.50;;;1.40;;
36195;SDS011;22237;51.974;4.616;2024-03-25T06:43:40;0.50;;;0.50;;
36195;SDS011;22237;51.974;4.616;2024-03-25T06:46:06;1.85;;;1.25;;
36195;SDS011;22237;51.974;4.616;2024-03-25T06:48:31;0.88;;;0.88;;
36195;SDS011;22237;51.974;4.616;2024-03-25T06:50:57;1.15;;;1.05;;
36195;SDS011;22237;51.974;4.616;2024-03-25T06:53:22;1.05;;;1.02;;
36195;SDS011;22237;51.974;4.616;2024-03-25T06:56:00;0.75;;;0.75;;
36195;SDS011;22237;51.974;4.616;2024-03-25T06:58:26;4.55;;;0.82;;
36195;SDS011;22237;51.974;4.616;2024-03-25T07:00:52;0.65;;;0.65;;
36195;SDS011;22237;51.974;4.616;2024-03-25T07:03:18;2.00;;;1.90;;
36195;SDS011;22237;51.974;4.616;2024-03-25T07:05:44;3.67;;;2.65;;
36195;SDS011;22237;51.974;4.616;2024-03-25T07:08:09;0.70;;;0.70;;
36195;SDS011;22237;51.974;4.616;2024-03-25T07:10:34;2.28;;;1.55;;
36195;SDS011;22237;51.974;4.616;2024-03-25T07:12:59;4.18;;;1.80;;
36195;SDS011;22237;51.974;4.616;2024-03-25T07:15:25;1.40;;;1.30;;
36195;SDS011;22237;51.974;4.616;2024-03-25T07:17:50;0.90;;;0.90;;
36195;SDS011;22237;51.974;4.616;2024-03-25T07:20:15;38.70;;;1.63;;
36195;SDS011;22237;51.974;4.616;2024-03-25T07:22:41;7.78;;;1.75;;
36195;SDS011;22237;51.974;4.616;2024-03-25T07:25:06;3.70;;;1.55;;
36195;SDS011;22237;51.974;4.616;2024-03-25T07:27:31;1.17;;;1.17;;
36195;SDS011;22237;51.974;4.616;2024-03-25T07:29:56;3.40;;;1.58;;
36195;SDS011;22237;51.974;4.616;2024-03-25T07:32:22;1.27;;;1.02;;
36195;SDS011;22237;51.974;4.616;2024-03-25T07:34:47;0.73;;;0.73;;
36195;SDS011;22237;51.974;4.616;2024-03-25T07:37:12;9.05;;;2.35;;
36195;SDS011;22237;51.974;4.616;2024-03-25T07:39:37;4.03;;;2.28;;
36195;SDS011;22237;51.974;4.616;2024-03-25T07:42:03;4.53;;;1.30;;
36195;SDS011;22237;51.974;4.616;2024-03-25T07:44:28;1.23;;;1.13;;
36195;SDS011;22237;51.974;4.616;2024-03-25T07:46:53;1.20;;;1.20;;
36195;SDS011;22237;51.974;4.616;2024-03-25T07:49:19;4.57;;;2.15;;
36195;SDS011;22237;51.974;4.616;2024-03-25T07:51:44;3.95;;;1.95;;
36195;SDS011;22237;51.974;4.616;2024-03-25T07:54:09;1.60;;;1.50;;
36195;SDS011;22237;51.974;4.616;2024-03-25T07:56:37;3.25;;;2.25;;
36195;SDS011;22237;51.974;4.616;2024-03-25T07:59:02;2.78;;;1.27;;
36195;SDS011;22237;51.974;4.616;2024-03-25T08:01:28;4.97;;;2.80;;
36195;SDS011;22237;51.974;4.616;2024-03-25T08:03:54;2.72;;;2.58;;
36195;SDS011;22237;51.974;4.616;2024-03-25T08:06:19;2.37;;;2.13;;
36195;SDS011;22237;51.974;4.616;2024-03-25T08:08:46;5.13;;;2.70;;
36195;SDS011;22237;51.974;4.616;2024-03-25T08:11:11;8.48;;;2.10;;
36195;SDS011;22237;51.974;4.616;2024-03-25T08:13:37;1.77;;;1.58;;
36195;SDS011;22237;51.974;4.616;2024-03-25T08:16:02;11.57;;;3.38;;
36195;SDS011;22237;51.974;4.616;2024-03-25T08:18:27;27.30;;;2.85;;
36195;SDS011;22237;51.974;4.616;2024-03-25T08:20:53;2.63;;;2.07;;
36195;SDS011;22237;51.974;4.616;2024-03-25T08:23:18;1.47;;;0.97;;
36195;SDS011;22237;51.974;4.616;2024-03-25T08:25:43;3.47;;;2.80;;
36195;SDS011;22237;51.974;4.616;2024-03-25T08:28:08;2.00;;;1.20;;
36195;SDS011;22237;51.974;4.616;2024-03-25T08:30:33;1.98;;;1.77;;
36195;SDS011;22237;51.974;4.616;2024-03-25T08:33:01;3.13;;;1.98;;
36195;SDS011;22237;51.974;4.616;2024-03-25T08:35:26;3.97;;;1.90;;
36195;SDS011;22237;51.974;4.616;2024-03-25T08:37:51;1.63;;;1.53;;
36195;SDS011;22237;51.974;4.616;2024-03-25T08:40:16;2.17;;;1.50;;
36195;SDS011;22237;51.974;4.616;2024-03-25T08:42:41;2.15;;;1.67;;
36195;SDS011;22237;51.974;4.616;2024-03-25T08:45:07;2.17;;;1.60;;
36195;SDS011;22237;51.974;4.616;2024-03-25T08:47:32;1.73;;;1.60;;
36195;SDS011;22237;51.974;4.616;2024-03-25T08:49:57;12.77;;;2.30;;
36195;SDS011;22237;51.974;4.616;2024-03-25T08:52:22;3.25;;;2.15;;
36195;SDS011;22237;51.974;4.616;2024-03-25T08:54:48;1.17;;;1.07;;
36195;SDS011;22237;51.974;4.616;2024-03-25T08:57:13;2.40;;;1.73;;
36195;SDS011;22237;51.974;4.616;2024-03-25T08:59:38;1.90;;;1.53;;
36195;SDS011;22237;51.974;4.616;2024-03-25T09:02:03;6.17;;;2.27;;
36195;SDS011;22237;51.974;4.616;2024-03-25T09:04:29;2.03;;;1.52;;
36195;SDS011;22237;51.974;4.616;2024-03-25T09:06:55;6.45;;;1.75;;
36195;SDS011;22237;51.974;4.616;2024-03-25T09:09:20;3.20;;;2.13;;
36195;SDS011;22237;51.974;4.616;2024-03-25T09:12:04;2.38;;;1.85;;
36195;SDS011;22237;51.974;4.616;2024-03-25T09:14:30;10.35;;;2.35;;
36195;SDS011;22237;51.974;4.616;2024-03-25T09:16:55;2.33;;;1.93;;
36195;SDS011;22237;51.974;4.616;2024-03-25T09:19:20;6.57;;;2.23;;
36195;SDS011;22237;51.974;4.616;2024-03-25T09:21:45;2.50;;;1.90;;
36195;SDS011;22237;51.974;4.616;2024-03-25T09:24:10;3.17;;;2.37;;
36195;SDS011;22237;51.974;4.616;2024-03-25T09:26:35;1.10;;;1.00;;
36195;SDS011;22237;51.974;4.616;2024-03-25T09:29:01;3.45;;;1.65;;
36195;SDS011;22237;51.974;4.616;2024-03-25T09:31:28;14.75;;;2.22;;
36195;SDS011;22237;51.974;4.616;2024-03-25T09:33:53;3.47;;;2.47;;
36195;SDS011;22237;51.974;4.616;2024-03-25T09:36:18;11.48;;;2.75;;
36195;SDS011;22237;51.974;4.616;2024-03-25T09:38:44;5.13;;;2.72;;
36195;SDS011;22237;51.974;4.616;2024-03-25T09:41:09;4.73;;;2.30;;
36195;SDS011;22237;51.974;4.616;2024-03-25T09:43:54;1.90;;;1.58;;
36195;SDS011;22237;51.974;4.616;2024-03-25T09:46:22;11.73;;;4.15;;
36195;SDS011;22237;51.974;4.616;2024-03-25T09:48:47;5.85;;;3.88;;
36195;SDS011;22237;51.974;4.616;2024-03-25T09:51:13;11.68;;;2.47;;
36195;SDS011;22237;51.974;4.616;2024-03-25T09:53:38;3.90;;;2.53;;
36195;SDS011;22237;51.974;4.616;2024-03-25T09:56:04;3.55;;;2.42;;
36195;SDS011;22237;51.974;4.616;2024-03-25T09:58:29;3.97;;;2.80;;
36195;SDS011;22237;51.974;4.616;2024-03-25T10:00:55;5.05;;;3.08;;
36195;SDS011;22237;51.974;4.616;2024-03-25T10:03:20;7.53;;;2.95;;
36195;SDS011;22237;51.974;4.616;2024-03-25T10:05:46;6.72;;;3.15;;
36195;SDS011;22237;51.974;4.616;2024-03-25T10:08:11;5.00;;;2.95;;
36195;SDS011;22237;51.974;4.616;2024-03-25T10:10:36;10.77;;;3.33;;
36195;SDS011;22237;51.974;4.616;2024-03-25T10:13:02;15.45;;;4.57;;
36195;SDS011;22237;51.974;4.616;2024-03-25T10:15:28;7.63;;;4.03;;
36195;SDS011;22237;51.974;4.616;2024-03-25T10:17:53;10.63;;;4.30;;
36195;SDS011;22237;51.974;4.616;2024-03-25T10:20:19;16.42;;;4.18;;
36195;SDS011;22237;51.974;4.616;2024-03-25T10:22:44;4.90;;;3.75;;
36195;SDS011;22237;51.974;4.616;2024-03-25T10:25:23;15.13;;;4.43;;
36195;SDS011;22237;51.974;4.616;2024-03-25T10:27:57;8.52;;;3.17;;
36195;SDS011;22237;51.974;4.616;2024-03-25T10:30:22;10.18;;;4.32;;
36195;SDS011;22237;51.974;4.616;2024-03-25T10:32:57;8.83;;;5.33;;
36195;SDS011;22237;51.974;4.616;2024-03-25T10:35:22;14.20;;;3.72;;
36195;SDS011;22237;51.974;4.616;2024-03-25T10:37:48;8.27;;;3.70;;
36195;SDS011;22237;51.974;4.616;2024-03-25T10:40:14;3.95;;;2.38;;
36195;SDS011;22237;51.974;4.616;2024-03-25T10:42:39;6.90;;;2.47;;
36195;SDS011;22237;51.974;4.616;2024-03-25T10:45:07;11.05;;;3.95;;
36195;SDS011;22237;51.974;4.616;2024-03-25T10:47:33;12.93;;;4.40;;
36195;SDS011;22237;51.974;4.616;2024-03-25T10:49:59;8.75;;;4.82;;
36195;SDS011;22237;51.974;4.616;2024-03-25T10:52:28;11.05;;;3.20;;
36195;SDS011;22237;51.974;4.616;2024-03-25T10:54:54;12.98;;;5.30;;
36195;SDS011;22237;51.974;4.616;2024-03-25T10:57:20;4.97;;;3.67;;
36195;SDS011;22237;51.974;4.616;2024-03-25T10:59:45;7.15;;;3.45;;
36195;SDS011;22237;51.974;4.616;2024-03-25T11:02:11;18.92;;;4.32;;
36195;SDS011;22237;51.974;4.616;2024-03-25T11:04:36;6.03;;;3.38;;
36195;SDS011;22237;51.974;4.616;2024-03-25T11:09:33;6.85;;;3.03;;
36195;SDS011;22237;51.974;4.616;2024-03-25T11:11:58;18.15;;;4.00;;
36195;SDS011;22237;51.974;4.616;2024-03-25T11:14:27;6.90;;;3.42;;
36195;SDS011;22237;51.974;4.616;2024-03-25T11:16:53;7.45;;;3.25;;
36195;SDS011;22237;51.974;4.616;2024-03-25T11:19:18;3.67;;;2.60;;
36195;SDS011;22237;51.974;4.616;2024-03-25T11:21:44;7.95;;;3.20;;
36195;SDS011;22237;51.974;4.616;2024-03-25T11:24:09;7.20;;;2.43;;
36195;SDS011;22237;51.974;4.616;2024-03-25T11:26:39;5.00;;;2.58;;
36195;SDS011;22237;51.974;4.616;2024-03-25T11:29:05;4.05;;;2.60;;
36195;SDS011;22237;51.974;4.616;2024-03-25T11:31:30;5.60;;;1.80;;
36195;SDS011;22237;51.974;4.616;2024-03-25T11:33:58;4.05;;;2.10;;
36195;SDS011;22237;51.974;4.616;2024-03-25T11:36:28;1.77;;;1.58;;
36195;SDS011;22237;51.974;4.616;2024-03-25T11:38:59;5.43;;;3.15;;
36195;SDS011;22237;51.974;4.616;2024-03-25T11:41:25;2.83;;;2.05;;
36195;SDS011;22237;51.974;4.616;2024-03-25T11:43:51;9.93;;;1.70;;
36195;SDS011;22237;51.974;4.616;2024-03-25T11:46:19;1.88;;;0.68;;
36195;SDS011;22237;51.974;4.616;2024-03-25T11:48:44;4.45;;;1.13;;
36195;SDS011;22237;51.974;4.616;2024-03-25T11:51:13;6.40;;;1.30;;
36195;SDS011;22237;51.974;4.616;2024-03-25T11:53:38;2.20;;;0.88;;
36195;SDS011;22237;51.974;4.616;2024-03-25T11:56:03;1.93;;;1.07;;
36195;SDS011;22237;51.974;4.616;2024-03-25T11:58:28;4.38;;;1.17;;
36195;SDS011;22237;51.974;4.616;2024-03-25T12:00:54;5.82;;;1.88;;
36195;SDS011;22237;51.974;4.616;2024-03-25T12:03:19;2.67;;;1.40;;
36195;SDS011;22237;51.974;4.616;2024-03-25T12:05:44;3.25;;;0.85;;
36195;SDS011;22237;51.974;4.616;2024-03-25T12:08:10;3.45;;;0.82;;
36195;SDS011;22237;51.974;4.616;2024-03-25T12:10:36;0.85;;;0.85;;
36195;SDS011;22237;51.974;4.616;2024-03-25T12:13:20;1.95;;;1.27;;
36195;SDS011;22237;51.974;4.616;2024-03-25T12:15:45;12.80;;;1.20;;
36195;SDS011;22237;51.974;4.616;2024-03-25T12:18:10;2.22;;;2.03;;
36195;SDS011;22237;51.974;4.616;2024-03-25T12:20:35;4.13;;;1.55;;
36195;SDS011;22237;51.974;4.616;2024-03-25T12:23:01;2.08;;;1.00;;
36195;SDS011;22237;51.974;4.616;2024-03-25T12:25:26;5.63;;;2.38;;
36195;SDS011;22237;51.974;4.616;2024-03-25T12:27:52;5.60;;;1.87;;
36195;SDS011;22237;51.974;4.616;2024-03-25T12:30:19;8.40;;;2.20;;
36195;SDS011;22237;51.974;4.616;2024-03-25T12:32:44;4.22;;;1.67;;
36195;SDS011;22237;51.974;4.616;2024-03-25T12:35:10;6.97;;;1.95;;
36195;SDS011;22237;51.974;4.616;2024-03-25T12:37:36;3.08;;;1.42;;
36195;SDS011;22237;51.974;4.616;2024-03-25T12:40:01;2.03;;;1.52;;
36195;SDS011;22237;51.974;4.616;2024-03-25T12:42:27;2.28;;;1.02;;
36195;SDS011;22237;51.974;4.616;2024-03-25T12:44:53;1.45;;;1.23;;
36195;SDS011;22237;51.974;4.616;2024-03-25T12:47:19;2.08;;;1.13;;
36195;SDS011;22237;51.974;4.616;2024-03-25T12:49:44;3.70;;;1.88;;
36195;SDS011;22237;51.974;4.616;2024-03-25T12:52:09;1.80;;;1.17;;
36195;SDS011;22237;51.974;4.616;2024-03-25T12:54:35;9.70;;;1.10;;
36195;SDS011;22237;51.974;4.616;2024-03-25T12:57:00;2.93;;;0.70;;
36195;SDS011;22237;51.974;4.616;2024-03-25T12:59:25;6.22;;;1.90;;
36195;SDS011;22237;51.974;4.616;2024-03-25T13:01:50;1.33;;;1.23;;
36195;SDS011;22237;51.974;4.616;2024-03-25T13:04:16;2.70;;;1.45;;
36195;SDS011;22237;51.974;4.616;2024-03-25T13:06:41;4.03;;;1.23;;
36195;SDS011;22237;51.974;4.616;2024-03-25T13:09:06;0.57;;;0.50;;
36195;SDS011;22237;51.974;4.616;2024-03-25T13:11:32;1.10;;;0.77;;
36195;SDS011;22237;51.974;4.616;2024-03-25T13:13:57;2.97;;;0.90;;
36195;SDS011;22237;51.974;4.616;2024-03-25T13:16:23;0.98;;;0.98;;
36195;SDS011;22237;51.974;4.616;2024-03-25T13:18:48;1.80;;;0.80;;
36195;SDS011;22237;51.974;4.616;2024-03-25T13:21:14;2.15;;;1.05;;
36195;SDS011;22237;51.974;4.616;2024-03-25T13:23:39;1.35;;;0.95;;
36195;SDS011;22237;51.974;4.616;2024-03-25T13:26:04;2.87;;;1.37;;
36195;SDS011;22237;51.974;4.616;2024-03-25T13:28:30;1.77;;;0.80;;
36195;SDS011;22237;51.974;4.616;2024-03-25T13:30:55;0.83;;;0.83;;
36195;SDS011;22237;51.974;4.616;2024-03-25T13:33:20;1.95;;;1.38;;
36195;SDS011;22237;51.974;4.616;2024-03-25T13:35:45;0.60;;;0.60;;
36195;SDS011;22237;51.974;4.616;2024-03-25T13:38:12;0.52;;;0.52;;
36195;SDS011;22237;51.974;4.616;2024-03-25T13:40:37;1.27;;;0.67;;
36195;SDS011;22237;51.974;4.616;2024-03-25T13:43:02;5.68;;;0.73;;
36195;SDS011;22237;51.974;4.616;2024-03-25T13:45:29;0.38;;;0.38;;
36195;SDS011;22237;51.974;4.616;2024-03-25T13:47:55;1.57;;;0.80;;
36195;SDS011;22237;51.974;4.616;2024-03-25T13:50:20;3.40;;;0.80;;
36195;SDS011;22237;51.974;4.616;2024-03-25T13:52:47;0.52;;;0.52;;
36195;SDS011;22237;51.974;4.616;2024-03-25T13:55:12;0.67;;;0.63;;
36195;SDS011;22237;51.974;4.616;2024-03-25T13:57:37;1.80;;;0.80;;
36195;SDS011;22237;51.974;4.616;2024-03-25T14:00:03;6.95;;;1.10;;
36195;SDS011;22237;51.974;4.616;2024-03-25T14:02:33;0.52;;;0.52;;
36195;SDS011;22237;51.974;4.616;2024-03-25T14:04:58;0.60;;;0.60;;
36195;SDS011;22237;51.974;4.616;2024-03-25T14:07:23;1.43;;;0.80;;
36195;SDS011;22237;51.974;4.616;2024-03-25T14:09:48;0.60;;;0.60;;
36195;SDS011;22237;51.974;4.616;2024-03-25T14:12:14;2.20;;;0.70;;
36195;SDS011;22237;51.974;4.616;2024-03-25T14:14:39;2.10;;;0.83;;
36195;SDS011;22237;51.974;4.616;2024-03-25T14:17:04;0.67;;;0.60;;
36195;SDS011;22237;51.974;4.616;2024-03-25T14:19:30;0.68;;;0.68;;
36195;SDS011;22237;51.974;4.616;2024-03-25T14:21:55;0.50;;;0.50;;
36195;SDS011;22237;51.974;4.616;2024-03-25T14:24:21;4.03;;;0.70;;
36195;SDS011;22237;51.974;4.616;2024-03-25T14:26:46;0.57;;;0.57;;
36195;SDS011;22237;51.974;4.616;2024-03-25T14:29:12;0.90;;;0.90;;
36195;SDS011;22237;51.974;4.616;2024-03-25T14:31:37;0.93;;;0.93;;
36195;SDS011;22237;51.974;4.616;2024-03-25T14:34:02;0.50;;;0.50;;
36195;SDS011;22237;51.974;4.616;2024-03-25T14:36:30;7.43;;;1.13;;
36195;SDS011;22237;51.974;4.616;2024-03-25T14:38:55;0.50;;;0.50;;